sensor_id;sensor_type;location;lat;lon;timestamp;P1;durP1;ratioP1;P2;durP2;ratioP2
77864;SDS011;67061;48.524;9.040;2023-08-31T00:01:18;3.25;;;2.38;;
77864;SDS011;67061;48.524;9.040;2023-08-31T00:03:45;4.55;;;2.63;;
77864;SDS011;67061;48.524;9.040;2023-08-31T00:06:12;3.20;;;2.22;;
77864;SDS011;67061;48.524;9.040;2023-08-31T00:08:40;4.82;;;2.53;;
77864;SDS011;67061;48.524;9.040;2023-08-31T00:11:07;4.03;;;2.25;;
77864;SDS011;67061;48.524;9.040;2023-08-31T00:13:34;4.80;;;2.65;;
77864;SDS011;67061;48.524;9.040;2023-08-31T00:16:01;3.97;;;2.13;;
77864;SDS011;67061;48.524;9.040;2023-08-31T00:18:30;3.30;;;2.15;;
77864;SDS011;67061;48.524;9.040;2023-08-31T00:20:57;3.08;;;2.17;;
77864;SDS011;67061;48.524;9.040;2023-08-31T00:23:24;3.33;;;2.10;;
77864;SDS011;67061;48.524;9.040;2023-08-31T00:25:52;3.42;;;2.63;;
77864;SDS011;67061;48.524;9.040;2023-08-31T00:28:19;4.93;;;2.30;;
77864;SDS011;67061;48.524;9.040;2023-08-31T00:30:46;3.00;;;1.58;;
77864;SDS011;67061;48.524;9.040;2023-08-31T00:33:13;3.67;;;2.65;;
77864;SDS011;67061;48.524;9.040;2023-08-31T00:35:41;4.28;;;2.50;;
77864;SDS011;67061;48.524;9.040;2023-08-31T00:38:10;4.40;;;2.42;;
77864;SDS011;67061;48.524;9.040;2023-08-31T00:40:41;3.38;;;2.17;;
77864;SDS011;67061;48.524;9.040;2023-08-31T00:43:12;4.75;;;2.67;;
77864;SDS011;67061;48.524;9.040;2023-08-31T00:45:41;3.55;;;2.72;;
77864;SDS011;67061;48.524;9.040;2023-08-31T00:48:09;5.78;;;2.67;;
77864;SDS011;67061;48.524;9.040;2023-08-31T00:50:37;3.90;;;2.45;;
77864;SDS011;67061;48.524;9.040;2023-08-31T00:53:04;4.22;;;3.58;;
77864;SDS011;67061;48.524;9.040;2023-08-31T00:55:31;3.85;;;2.40;;
77864;SDS011;67061;48.524;9.040;2023-08-31T00:57:58;4.38;;;2.55;;
77864;SDS011;67061;48.524;9.040;2023-08-31T01:00:27;5.10;;;2.88;;
77864;SDS011;67061;48.524;9.040;2023-08-31T01:02:59;4.15;;;2.30;;
77864;SDS011;67061;48.524;9.040;2023-08-31T01:05:33;4.15;;;1.67;;
77864;SDS011;67061;48.524;9.040;2023-08-31T01:08:12;4.90;;;2.63;;
77864;SDS011;67061;48.524;9.040;2023-08-31T01:10:47;6.10;;;2.58;;
77864;SDS011;67061;48.524;9.040;2023-08-31T01:13:24;5.07;;;2.63;;
77864;SDS011;67061;48.524;9.040;2023-08-31T01:15:56;3.80;;;2.45;;
77864;SDS011;67061;48.524;9.040;2023-08-31T01:18:29;4.38;;;2.47;;
77864;SDS011;67061;48.524;9.040;2023-08-31T01:21:01;4.03;;;2.97;;
77864;SDS011;67061;48.524;9.040;2023-08-31T01:23:46;3.28;;;2.50;;
77864;SDS011;67061;48.524;9.040;2023-08-31T01:26:18;3.88;;;2.60;;
77864;SDS011;67061;48.524;9.040;2023-08-31T01:28:46;4.00;;;3.05;;
77864;SDS011;67061;48.524;9.040;2023-08-31T01:31:13;3.25;;;2.55;;
77864;SDS011;67061;48.524;9.040;2023-08-31T01:33:40;3.67;;;2.90;;
77864;SDS011;67061;48.524;9.040;2023-08-31T01:36:08;3.95;;;2.88;;
77864;SDS011;67061;48.524;9.040;2023-08-31T01:38:40;5.07;;;2.85;;
77864;SDS011;67061;48.524;9.040;2023-08-31T01:41:13;3.97;;;2.58;;
77864;SDS011;67061;48.524;9.040;2023-08-31T01:43:44;4.00;;;2.25;;
77864;SDS011;67061;48.524;9.040;2023-08-31T01:46:13;5.18;;;2.72;;
77864;SDS011;67061;48.524;9.040;2023-08-31T01:48:41;4.53;;;3.17;;
77864;SDS011;67061;48.524;9.040;2023-08-31T01:51:09;4.30;;;1.88;;
77864;SDS011;67061;48.524;9.040;2023-08-31T01:53:36;4.18;;;2.70;;
77864;SDS011;67061;48.524;9.040;2023-08-31T01:56:03;4.57;;;2.45;;
77864;SDS011;67061;48.524;9.040;2023-08-31T01:58:32;5.40;;;2.95;;
77864;SDS011;67061;48.524;9.040;2023-08-31T02:00:59;5.20;;;2.78;;
77864;SDS011;67061;48.524;9.040;2023-08-31T02:03:26;4.18;;;3.00;;
77864;SDS011;67061;48.524;9.040;2023-08-31T02:05:53;4.25;;;2.60;;
77864;SDS011;67061;48.524;9.040;2023-08-31T02:08:20;3.45;;;2.60;;
77864;SDS011;67061;48.524;9.040;2023-08-31T02:10:47;4.10;;;2.78;;
77864;SDS011;67061;48.524;9.040;2023-08-31T02:13:14;3.20;;;2.45;;
77864;SDS011;67061;48.524;9.040;2023-08-31T02:15:43;4.20;;;2.42;;
77864;SDS011;67061;48.524;9.040;2023-08-31T02:18:10;3.38;;;2.30;;
77864;SDS011;67061;48.524;9.040;2023-08-31T02:20:37;4.00;;;3.28;;
77864;SDS011;67061;48.524;9.040;2023-08-31T02:23:04;6.00;;;2.92;;
77864;SDS011;67061;48.524;9.040;2023-08-31T02:25:30;5.20;;;2.60;;
77864;SDS011;67061;48.524;9.040;2023-08-31T02:27:58;3.42;;;2.88;;
77864;SDS011;67061;48.524;9.040;2023-08-31T02:30:25;4.13;;;2.15;;
77864;SDS011;67061;48.524;9.040;2023-08-31T02:32:53;3.90;;;3.38;;
77864;SDS011;67061;48.524;9.040;2023-08-31T02:35:20;3.90;;;2.42;;
77864;SDS011;67061;48.524;9.040;2023-08-31T02:37:47;5.80;;;2.90;;
77864;SDS011;67061;48.524;9.040;2023-08-31T02:40:14;5.13;;;2.85;;
77864;SDS011;67061;48.524;9.040;2023-08-31T02:42:42;4.97;;;2.80;;
77864;SDS011;67061;48.524;9.040;2023-08-31T02:45:09;3.65;;;2.50;;
77864;SDS011;67061;48.524;9.040;2023-08-31T02:47:36;3.50;;;2.80;;
77864;SDS011;67061;48.524;9.040;2023-08-31T02:50:05;4.20;;;2.80;;
77864;SDS011;67061;48.524;9.040;2023-08-31T02:52:33;3.90;;;2.50;;
77864;SDS011;67061;48.524;9.040;2023-08-31T02:55:00;4.00;;;2.40;;
77864;SDS011;67061;48.524;9.040;2023-08-31T02:57:27;4.25;;;2.88;;
77864;SDS011;67061;48.524;9.040;2023-08-31T02:59:54;4.80;;;2.40;;
77864;SDS011;67061;48.524;9.040;2023-08-31T03:02:21;4.00;;;2.88;;
77864;SDS011;67061;48.524;9.040;2023-08-31T03:04:48;3.40;;;2.65;;
77864;SDS011;67061;48.524;9.040;2023-08-31T03:07:17;5.65;;;2.88;;
77864;SDS011;67061;48.524;9.040;2023-08-31T03:09:47;3.67;;;2.80;;
77864;SDS011;67061;48.524;9.040;2023-08-31T03:12:15;3.97;;;2.78;;
77864;SDS011;67061;48.524;9.040;2023-08-31T03:14:42;5.28;;;3.10;;
77864;SDS011;67061;48.524;9.040;2023-08-31T03:17:09;4.68;;;3.22;;
77864;SDS011;67061;48.524;9.040;2023-08-31T03:19:36;4.18;;;2.92;;
77864;SDS011;67061;48.524;9.040;2023-08-31T03:22:03;4.95;;;2.83;;
77864;SDS011;67061;48.524;9.040;2023-08-31T03:24:32;5.35;;;2.67;;
77864;SDS011;67061;48.524;9.040;2023-08-31T03:26:59;5.82;;;2.67;;
77864;SDS011;67061;48.524;9.040;2023-08-31T03:29:26;4.07;;;3.17;;
77864;SDS011;67061;48.524;9.040;2023-08-31T03:31:54;4.18;;;2.90;;
77864;SDS011;67061;48.524;9.040;2023-08-31T03:34:21;5.55;;;3.38;;
77864;SDS011;67061;48.524;9.040;2023-08-31T03:36:48;5.18;;;3.22;;
77864;SDS011;67061;48.524;9.040;2023-08-31T03:39:15;4.65;;;2.08;;
77864;SDS011;67061;48.524;9.040;2023-08-31T03:41:44;4.82;;;2.92;;
77864;SDS011;67061;48.524;9.040;2023-08-31T03:44:11;4.30;;;3.10;;
77864;SDS011;67061;48.524;9.040;2023-08-31T03:46:38;4.57;;;2.75;;
77864;SDS011;67061;48.524;9.040;2023-08-31T03:49:05;5.63;;;3.10;;
77864;SDS011;67061;48.524;9.040;2023-08-31T03:51:32;3.95;;;2.85;;
77864;SDS011;67061;48.524;9.040;2023-08-31T03:53:59;4.75;;;3.03;;
77864;SDS011;67061;48.524;9.040;2023-08-31T03:56:26;4.00;;;2.90;;
77864;SDS011;67061;48.524;9.040;2023-08-31T03:58:54;3.90;;;2.88;;
77864;SDS011;67061;48.524;9.040;2023-08-31T04:01:21;6.50;;;2.80;;
77864;SDS011;67061;48.524;9.040;2023-08-31T04:03:48;5.72;;;3.97;;
77864;SDS011;67061;48.524;9.040;2023-08-31T04:06:15;5.05;;;3.10;;
77864;SDS011;67061;48.524;9.040;2023-08-31T04:08:42;4.53;;;2.78;;
77864;SDS011;67061;48.524;9.040;2023-08-31T04:11:09;8.20;;;3.35;;
77864;SDS011;67061;48.524;9.040;2023-08-31T04:13:36;5.57;;;3.15;;
77864;SDS011;67061;48.524;9.040;2023-08-31T04:16:04;5.32;;;3.25;;
77864;SDS011;67061;48.524;9.040;2023-08-31T04:18:31;4.72;;;3.08;;
77864;SDS011;67061;48.524;9.040;2023-08-31T04:20:58;3.58;;;2.80;;
77864;SDS011;67061;48.524;9.040;2023-08-31T04:23:28;4.13;;;2.78;;
77864;SDS011;67061;48.524;9.040;2023-08-31T04:25:57;4.88;;;3.00;;
77864;SDS011;67061;48.524;9.040;2023-08-31T04:28:24;6.65;;;2.80;;
77864;SDS011;67061;48.524;9.040;2023-08-31T04:30:51;7.78;;;3.03;;
77864;SDS011;67061;48.524;9.040;2023-08-31T04:33:19;4.38;;;2.80;;
77864;SDS011;67061;48.524;9.040;2023-08-31T04:35:46;5.50;;;3.00;;
77864;SDS011;67061;48.524;9.040;2023-08-31T04:38:13;5.40;;;2.90;;
77864;SDS011;67061;48.524;9.040;2023-08-31T04:40:40;5.97;;;2.80;;
77864;SDS011;67061;48.524;9.040;2023-08-31T04:43:08;4.53;;;3.03;;
77864;SDS011;67061;48.524;9.040;2023-08-31T04:45:35;5.05;;;3.30;;
77864;SDS011;67061;48.524;9.040;2023-08-31T04:48:02;4.00;;;3.00;;
77864;SDS011;67061;48.524;9.040;2023-08-31T04:50:31;5.30;;;3.83;;
77864;SDS011;67061;48.524;9.040;2023-08-31T04:52:58;5.55;;;3.42;;
77864;SDS011;67061;48.524;9.040;2023-08-31T04:55:25;4.40;;;3.65;;
77864;SDS011;67061;48.524;9.040;2023-08-31T04:57:52;4.10;;;2.30;;
77864;SDS011;67061;48.524;9.040;2023-08-31T05:00:19;4.72;;;3.55;;
77864;SDS011;67061;48.524;9.040;2023-08-31T05:02:46;4.72;;;3.05;;
77864;SDS011;67061;48.524;9.040;2023-08-31T05:05:13;6.13;;;3.53;;
77864;SDS011;67061;48.524;9.040;2023-08-31T05:07:41;4.93;;;3.65;;
77864;SDS011;67061;48.524;9.040;2023-08-31T05:10:09;6.53;;;3.10;;
77864;SDS011;67061;48.524;9.040;2023-08-31T05:12:36;6.07;;;3.30;;
77864;SDS011;67061;48.524;9.040;2023-08-31T05:15:03;4.72;;;3.05;;
77864;SDS011;67061;48.524;9.040;2023-08-31T05:17:31;4.55;;;3.30;;
77864;SDS011;67061;48.524;9.040;2023-08-31T05:19:59;4.65;;;3.65;;
77864;SDS011;67061;48.524;9.040;2023-08-31T05:22:26;4.60;;;3.00;;
77864;SDS011;67061;48.524;9.040;2023-08-31T05:24:54;5.50;;;3.08;;
77864;SDS011;67061;48.524;9.040;2023-08-31T05:27:21;4.15;;;3.15;;
77864;SDS011;67061;48.524;9.040;2023-08-31T05:29:48;3.30;;;1.75;;
77864;SDS011;67061;48.524;9.040;2023-08-31T05:32:15;3.67;;;2.70;;
77864;SDS011;67061;48.524;9.040;2023-08-31T05:34:42;5.72;;;3.13;;
77864;SDS011;67061;48.524;9.040;2023-08-31T05:37:09;6.10;;;3.13;;
77864;SDS011;67061;48.524;9.040;2023-08-31T05:39:37;5.43;;;3.35;;
77864;SDS011;67061;48.524;9.040;2023-08-31T05:42:05;3.90;;;2.50;;
77864;SDS011;67061;48.524;9.040;2023-08-31T05:44:32;4.10;;;2.92;;
77864;SDS011;67061;48.524;9.040;2023-08-31T05:46:59;7.82;;;3.53;;
77864;SDS011;67061;48.524;9.040;2023-08-31T05:49:26;4.85;;;3.00;;
77864;SDS011;67061;48.524;9.040;2023-08-31T05:51:53;5.65;;;3.47;;
77864;SDS011;67061;48.524;9.040;2023-08-31T05:54:20;5.35;;;2.08;;
77864;SDS011;67061;48.524;9.040;2023-08-31T05:56:47;3.97;;;2.88;;
77864;SDS011;67061;48.524;9.040;2023-08-31T05:59:15;4.50;;;3.47;;
77864;SDS011;67061;48.524;9.040;2023-08-31T06:01:43;4.38;;;2.83;;
77864;SDS011;67061;48.524;9.040;2023-08-31T06:04:09;5.97;;;3.17;;
77864;SDS011;67061;48.524;9.040;2023-08-31T06:06:36;5.72;;;3.30;;
77864;SDS011;67061;48.524;9.040;2023-08-31T06:09:03;5.07;;;3.35;;
77864;SDS011;67061;48.524;9.040;2023-08-31T06:11:31;4.10;;;3.13;;
77864;SDS011;67061;48.524;9.040;2023-08-31T06:13:59;4.95;;;2.60;;
77864;SDS011;67061;48.524;9.040;2023-08-31T06:16:27;6.85;;;3.53;;
77864;SDS011;67061;48.524;9.040;2023-08-31T06:18:54;4.90;;;2.60;;
77864;SDS011;67061;48.524;9.040;2023-08-31T06:21:21;5.97;;;2.97;;
77864;SDS011;67061;48.524;9.040;2023-08-31T06:23:47;5.97;;;2.90;;
77864;SDS011;67061;48.524;9.040;2023-08-31T06:26:14;4.80;;;3.22;;
77864;SDS011;67061;48.524;9.040;2023-08-31T06:28:41;4.40;;;2.95;;
77864;SDS011;67061;48.524;9.040;2023-08-31T06:31:08;5.22;;;3.63;;
77864;SDS011;67061;48.524;9.040;2023-08-31T06:33:36;10.98;;;3.70;;
77864;SDS011;67061;48.524;9.040;2023-08-31T06:36:03;5.10;;;3.30;;
77864;SDS011;67061;48.524;9.040;2023-08-31T06:38:30;5.88;;;3.20;;
77864;SDS011;67061;48.524;9.040;2023-08-31T06:40:58;3.92;;;3.22;;
77864;SDS011;67061;48.524;9.040;2023-08-31T06:43:25;6.43;;;3.05;;
77864;SDS011;67061;48.524;9.040;2023-08-31T06:45:52;6.07;;;3.10;;
77864;SDS011;67061;48.524;9.040;2023-08-31T06:48:19;7.78;;;2.78;;
77864;SDS011;67061;48.524;9.040;2023-08-31T06:50:48;5.93;;;3.00;;
77864;SDS011;67061;48.524;9.040;2023-08-31T06:53:15;7.72;;;3.35;;
77864;SDS011;67061;48.524;9.040;2023-08-31T06:55:41;4.93;;;3.08;;
77864;SDS011;67061;48.524;9.040;2023-08-31T06:58:09;6.30;;;3.05;;
77864;SDS011;67061;48.524;9.040;2023-08-31T07:00:36;4.18;;;3.33;;
77864;SDS011;67061;48.524;9.040;2023-08-31T07:03:03;5.88;;;3.55;;
77864;SDS011;67061;48.524;9.040;2023-08-31T07:05:32;6.15;;;3.35;;
77864;SDS011;67061;48.524;9.040;2023-08-31T07:08:03;6.40;;;3.20;;
77864;SDS011;67061;48.524;9.040;2023-08-31T07:10:30;5.10;;;3.92;;
77864;SDS011;67061;48.524;9.040;2023-08-31T07:12:57;7.05;;;3.53;;
77864;SDS011;67061;48.524;9.040;2023-08-31T07:15:24;5.10;;;2.78;;
77864;SDS011;67061;48.524;9.040;2023-08-31T07:17:50;4.97;;;3.25;;
77864;SDS011;67061;48.524;9.040;2023-08-31T07:20:17;5.53;;;3.58;;
77864;SDS011;67061;48.524;9.040;2023-08-31T07:22:44;6.07;;;3.55;;
77864;SDS011;67061;48.524;9.040;2023-08-31T07:25:12;4.85;;;3.30;;
77864;SDS011;67061;48.524;9.040;2023-08-31T07:27:39;5.28;;;2.70;;
77864;SDS011;67061;48.524;9.040;2023-08-31T07:30:07;6.90;;;3.28;;
77864;SDS011;67061;48.524;9.040;2023-08-31T07:32:35;6.63;;;3.22;;
77864;SDS011;67061;48.524;9.040;2023-08-31T07:35:03;5.60;;;3.47;;
77864;SDS011;67061;48.524;9.040;2023-08-31T07:37:31;6.28;;;2.50;;
77864;SDS011;67061;48.524;9.040;2023-08-31T07:39:58;5.78;;;2.45;;
77864;SDS011;67061;48.524;9.040;2023-08-31T07:42:27;4.15;;;2.20;;
77864;SDS011;67061;48.524;9.040;2023-08-31T07:44:54;4.03;;;2.45;;
77864;SDS011;67061;48.524;9.040;2023-08-31T07:47:27;3.55;;;1.85;;
77864;SDS011;67061;48.524;9.040;2023-08-31T07:49:54;3.53;;;2.47;;
77864;SDS011;67061;48.524;9.040;2023-08-31T07:52:23;6.95;;;2.53;;
77864;SDS011;67061;48.524;9.040;2023-08-31T07:54:50;3.92;;;2.60;;
77864;SDS011;67061;48.524;9.040;2023-08-31T07:57:17;4.32;;;2.55;;
77864;SDS011;67061;48.524;9.040;2023-08-31T07:59:45;3.78;;;2.10;;
77864;SDS011;67061;48.524;9.040;2023-08-31T08:02:12;5.45;;;2.60;;
77864;SDS011;67061;48.524;9.040;2023-08-31T08:04:41;4.65;;;2.72;;
77864;SDS011;67061;48.524;9.040;2023-08-31T08:07:08;4.43;;;1.60;;
77864;SDS011;67061;48.524;9.040;2023-08-31T08:09:35;5.38;;;2.25;;
77864;SDS011;67061;48.524;9.040;2023-08-31T08:12:02;3.50;;;2.00;;
77864;SDS011;67061;48.524;9.040;2023-08-31T08:14:29;4.38;;;1.88;;
77864;SDS011;67061;48.524;9.040;2023-08-31T08:16:57;3.25;;;2.05;;
77864;SDS011;67061;48.524;9.040;2023-08-31T08:19:25;3.88;;;2.25;;
77864;SDS011;67061;48.524;9.040;2023-08-31T08:21:52;3.45;;;1.80;;
77864;SDS011;67061;48.524;9.040;2023-08-31T08:24:18;3.95;;;1.83;;
77864;SDS011;67061;48.524;9.040;2023-08-31T08:26:45;2.78;;;1.77;;
77864;SDS011;67061;48.524;9.040;2023-08-31T08:29:12;3.65;;;2.05;;
77864;SDS011;67061;48.524;9.040;2023-08-31T08:31:39;3.40;;;2.13;;
77864;SDS011;67061;48.524;9.040;2023-08-31T08:34:07;4.65;;;1.90;;
77864;SDS011;67061;48.524;9.040;2023-08-31T08:36:34;6.93;;;1.92;;
77864;SDS011;67061;48.524;9.040;2023-08-31T08:39:01;3.00;;;1.70;;
77864;SDS011;67061;48.524;9.040;2023-08-31T08:41:28;4.35;;;2.05;;
77864;SDS011;67061;48.524;9.040;2023-08-31T08:43:56;4.30;;;1.63;;
77864;SDS011;67061;48.524;9.040;2023-08-31T08:46:28;4.47;;;2.95;;
77864;SDS011;67061;48.524;9.040;2023-08-31T08:48:57;3.53;;;1.20;;
77864;SDS011;67061;48.524;9.040;2023-08-31T08:51:29;3.53;;;1.83;;
77864;SDS011;67061;48.524;9.040;2023-08-31T08:53:57;5.65;;;2.00;;
77864;SDS011;67061;48.524;9.040;2023-08-31T08:58:52;3.75;;;2.00;;
77864;SDS011;67061;48.524;9.040;2023-08-31T09:01:19;2.95;;;1.92;;
77864;SDS011;67061;48.524;9.040;2023-08-31T09:03:48;4.15;;;1.60;;
77864;SDS011;67061;48.524;9.040;2023-08-31T09:06:15;5.90;;;2.22;;
77864;SDS011;67061;48.524;9.040;2023-08-31T09:08:43;3.00;;;1.98;;
77864;SDS011;67061;48.524;9.040;2023-08-31T09:11:19;4.28;;;1.85;;
77864;SDS011;67061;48.524;9.040;2023-08-31T09:13:47;2.80;;;1.85;;
77864;SDS011;67061;48.524;9.040;2023-08-31T09:16:23;3.00;;;1.58;;
77864;SDS011;67061;48.524;9.040;2023-08-31T09:18:51;3.58;;;1.77;;
77864;SDS011;67061;48.524;9.040;2023-08-31T09:21:18;4.50;;;1.75;;
77864;SDS011;67061;48.524;9.040;2023-08-31T09:23:55;3.35;;;1.65;;
77864;SDS011;67061;48.524;9.040;2023-08-31T09:26:22;4.00;;;2.50;;
77864;SDS011;67061;48.524;9.040;2023-08-31T09:28:49;3.85;;;1.65;;
77864;SDS011;67061;48.524;9.040;2023-08-31T09:31:16;4.22;;;1.80;;
77864;SDS011;67061;48.524;9.040;2023-08-31T09:33:49;3.90;;;2.10;;
77864;SDS011;67061;48.524;9.040;2023-08-31T09:36:17;3.92;;;1.75;;
77864;SDS011;67061;48.524;9.040;2023-08-31T09:38:44;5.07;;;1.70;;
77864;SDS011;67061;48.524;9.040;2023-08-31T09:41:13;5.82;;;1.52;;
77864;SDS011;67061;48.524;9.040;2023-08-31T09:46:07;3.90;;;1.77;;
77864;SDS011;67061;48.524;9.040;2023-08-31T09:48:35;6.45;;;2.08;;
77864;SDS011;67061;48.524;9.040;2023-08-31T09:51:04;3.65;;;1.35;;
77864;SDS011;67061;48.524;9.040;2023-08-31T09:53:31;5.65;;;1.88;;
77864;SDS011;67061;48.524;9.040;2023-08-31T09:56:01;4.53;;;1.30;;
77864;SDS011;67061;48.524;9.040;2023-08-31T09:58:32;3.60;;;1.50;;
77864;SDS011;67061;48.524;9.040;2023-08-31T10:00:59;3.47;;;2.35;;
77864;SDS011;67061;48.524;9.040;2023-08-31T10:03:27;4.63;;;2.05;;
77864;SDS011;67061;48.524;9.040;2023-08-31T10:05:54;3.83;;;1.58;;
77864;SDS011;67061;48.524;9.040;2023-08-31T10:08:22;5.10;;;1.83;;
77864;SDS011;67061;48.524;9.040;2023-08-31T10:10:51;4.43;;;2.08;;
77864;SDS011;67061;48.524;9.040;2023-08-31T10:13:19;3.80;;;1.80;;
77864;SDS011;67061;48.524;9.040;2023-08-31T10:15:49;4.07;;;1.83;;
77864;SDS011;67061;48.524;9.040;2023-08-31T10:18:17;3.85;;;3.00;;
77864;SDS011;67061;48.524;9.040;2023-08-31T10:20:44;3.10;;;2.20;;
77864;SDS011;67061;48.524;9.040;2023-08-31T10:23:11;4.45;;;2.65;;
77864;SDS011;67061;48.524;9.040;2023-08-31T10:28:37;4.60;;;2.80;;
77864;SDS011;67061;48.524;9.040;2023-08-31T10:31:07;4.05;;;3.33;;
77864;SDS011;67061;48.524;9.040;2023-08-31T10:33:39;3.70;;;2.33;;
77864;SDS011;67061;48.524;9.040;2023-08-31T10:36:12;3.35;;;0.90;;
77864;SDS011;67061;48.524;9.040;2023-08-31T10:38:39;4.70;;;1.90;;
77864;SDS011;67061;48.524;9.040;2023-08-31T10:41:20;6.13;;;2.45;;
77864;SDS011;67061;48.524;9.040;2023-08-31T10:43:50;3.22;;;1.90;;
77864;SDS011;67061;48.524;9.040;2023-08-31T10:46:24;4.15;;;2.05;;
77864;SDS011;67061;48.524;9.040;2023-08-31T10:51:24;3.25;;;1.88;;
77864;SDS011;67061;48.524;9.040;2023-08-31T10:54:03;4.60;;;1.95;;
77864;SDS011;67061;48.524;9.040;2023-08-31T10:56:38;2.90;;;1.80;;
77864;SDS011;67061;48.524;9.040;2023-08-31T10:59:19;4.05;;;2.13;;
77864;SDS011;67061;48.524;9.040;2023-08-31T11:01:57;4.05;;;1.67;;
77864;SDS011;67061;48.524;9.040;2023-08-31T11:04:26;3.33;;;1.98;;
77864;SDS011;67061;48.524;9.040;2023-08-31T11:07:13;3.33;;;2.20;;
77864;SDS011;67061;48.524;9.040;2023-08-31T11:09:40;3.90;;;2.05;;
77864;SDS011;67061;48.524;9.040;2023-08-31T11:12:08;4.15;;;1.52;;
77864;SDS011;67061;48.524;9.040;2023-08-31T11:14:35;3.92;;;1.77;;
77864;SDS011;67061;48.524;9.040;2023-08-31T11:17:03;2.95;;;1.80;;
77864;SDS011;67061;48.524;9.040;2023-08-31T11:19:31;3.47;;;1.65;;
77864;SDS011;67061;48.524;9.040;2023-08-31T11:21:59;3.53;;;1.88;;
77864;SDS011;67061;48.524;9.040;2023-08-31T11:24:28;3.67;;;2.17;;
77864;SDS011;67061;48.524;9.040;2023-08-31T11:26:55;4.93;;;2.10;;
77864;SDS011;67061;48.524;9.040;2023-08-31T11:29:22;3.55;;;2.15;;
77864;SDS011;67061;48.524;9.040;2023-08-31T11:31:49;3.47;;;2.00;;
77864;SDS011;67061;48.524;9.040;2023-08-31T11:34:17;3.28;;;2.45;;
77864;SDS011;67061;48.524;9.040;2023-08-31T11:36:46;3.47;;;2.03;;
77864;SDS011;67061;48.524;9.040;2023-08-31T11:39:13;3.35;;;2.00;;
77864;SDS011;67061;48.524;9.040;2023-08-31T11:41:41;3.90;;;1.60;;
77864;SDS011;67061;48.524;9.040;2023-08-31T11:44:09;2.88;;;1.98;;
77864;SDS011;67061;48.524;9.040;2023-08-31T11:46:36;3.95;;;1.90;;
77864;SDS011;67061;48.524;9.040;2023-08-31T11:49:04;3.10;;;1.73;;
77864;SDS011;67061;48.524;9.040;2023-08-31T11:51:33;5.00;;;2.08;;
77864;SDS011;67061;48.524;9.040;2023-08-31T11:54:00;6.88;;;2.17;;
77864;SDS011;67061;48.524;9.040;2023-08-31T11:56:37;4.35;;;1.95;;
77864;SDS011;67061;48.524;9.040;2023-08-31T11:59:07;3.63;;;1.42;;
77864;SDS011;67061;48.524;9.040;2023-08-31T12:01:37;4.00;;;2.10;;
77864;SDS011;67061;48.524;9.040;2023-08-31T12:04:09;5.07;;;1.88;;
77864;SDS011;67061;48.524;9.040;2023-08-31T12:06:39;3.20;;;1.92;;
77864;SDS011;67061;48.524;9.040;2023-08-31T12:09:06;3.65;;;1.90;;
77864;SDS011;67061;48.524;9.040;2023-08-31T12:11:34;4.10;;;1.85;;
77864;SDS011;67061;48.524;9.040;2023-08-31T12:14:01;3.95;;;1.50;;
77864;SDS011;67061;48.524;9.040;2023-08-31T12:16:32;3.42;;;1.77;;
77864;SDS011;67061;48.524;9.040;2023-08-31T12:19:01;4.03;;;2.08;;
77864;SDS011;67061;48.524;9.040;2023-08-31T12:21:30;4.25;;;2.00;;
77864;SDS011;67061;48.524;9.040;2023-08-31T12:23:58;3.75;;;1.92;;
77864;SDS011;67061;48.524;9.040;2023-08-31T12:28:52;2.90;;;0.93;;
77864;SDS011;67061;48.524;9.040;2023-08-31T12:31:19;4.25;;;1.73;;
77864;SDS011;67061;48.524;9.040;2023-08-31T12:33:46;4.32;;;1.70;;
77864;SDS011;67061;48.524;9.040;2023-08-31T12:36:13;3.65;;;1.98;;
77864;SDS011;67061;48.524;9.040;2023-08-31T12:38:40;3.83;;;1.58;;
77864;SDS011;67061;48.524;9.040;2023-08-31T12:41:09;3.63;;;1.70;;
77864;SDS011;67061;48.524;9.040;2023-08-31T12:43:35;3.50;;;1.75;;
77864;SDS011;67061;48.524;9.040;2023-08-31T12:46:03;5.28;;;2.22;;
77864;SDS011;67061;48.524;9.040;2023-08-31T12:48:31;4.72;;;2.22;;
77864;SDS011;67061;48.524;9.040;2023-08-31T12:50:58;4.20;;;1.77;;
77864;SDS011;67061;48.524;9.040;2023-08-31T12:53:25;2.78;;;1.85;;
77864;SDS011;67061;48.524;9.040;2023-08-31T12:55:52;3.63;;;2.15;;
77864;SDS011;67061;48.524;9.040;2023-08-31T12:58:21;3.60;;;1.85;;
77864;SDS011;67061;48.524;9.040;2023-08-31T13:00:48;3.67;;;1.80;;
77864;SDS011;67061;48.524;9.040;2023-08-31T13:03:18;4.50;;;1.98;;
77864;SDS011;67061;48.524;9.040;2023-08-31T13:05:45;3.95;;;1.70;;
77864;SDS011;67061;48.524;9.040;2023-08-31T13:08:12;4.43;;;1.63;;
77864;SDS011;67061;48.524;9.040;2023-08-31T13:10:39;4.63;;;1.10;;
77864;SDS011;67061;48.524;9.040;2023-08-31T13:13:06;3.90;;;1.90;;
77864;SDS011;67061;48.524;9.040;2023-08-31T13:15:36;3.45;;;2.30;;
77864;SDS011;67061;48.524;9.040;2023-08-31T13:18:03;2.78;;;1.42;;
77864;SDS011;67061;48.524;9.040;2023-08-31T13:20:32;3.08;;;2.30;;
77864;SDS011;67061;48.524;9.040;2023-08-31T13:23:01;3.67;;;2.13;;
77864;SDS011;67061;48.524;9.040;2023-08-31T13:25:28;3.70;;;2.22;;
77864;SDS011;67061;48.524;9.040;2023-08-31T13:27:55;4.03;;;2.13;;
77864;SDS011;67061;48.524;9.040;2023-08-31T13:30:22;3.95;;;1.90;;
77864;SDS011;67061;48.524;9.040;2023-08-31T13:32:50;4.35;;;2.45;;
77864;SDS011;67061;48.524;9.040;2023-08-31T13:35:17;4.82;;;2.33;;
77864;SDS011;67061;48.524;9.040;2023-08-31T13:37:44;5.25;;;2.42;;
77864;SDS011;67061;48.524;9.040;2023-08-31T13:40:11;5.22;;;2.05;;
77864;SDS011;67061;48.524;9.040;2023-08-31T13:42:47;3.65;;;1.88;;
77864;SDS011;67061;48.524;9.040;2023-08-31T13:45:19;5.03;;;2.28;;
77864;SDS011;67061;48.524;9.040;2023-08-31T13:47:46;4.28;;;2.33;;
77864;SDS011;67061;48.524;9.040;2023-08-31T13:50:15;3.25;;;1.88;;
77864;SDS011;67061;48.524;9.040;2023-08-31T13:52:42;3.15;;;2.00;;
77864;SDS011;67061;48.524;9.040;2023-08-31T13:55:09;3.58;;;2.22;;
77864;SDS011;67061;48.524;9.040;2023-08-31T13:57:37;5.43;;;2.38;;
77864;SDS011;67061;48.524;9.040;2023-08-31T14:00:05;6.82;;;2.20;;
77864;SDS011;67061;48.524;9.040;2023-08-31T14:02:34;3.17;;;1.23;;
77864;SDS011;67061;48.524;9.040;2023-08-31T14:05:02;3.05;;;2.03;;
77864;SDS011;67061;48.524;9.040;2023-08-31T14:07:32;4.80;;;2.15;;
77864;SDS011;67061;48.524;9.040;2023-08-31T14:09:59;2.80;;;2.10;;
77864;SDS011;67061;48.524;9.040;2023-08-31T14:12:26;3.45;;;2.15;;
77864;SDS011;67061;48.524;9.040;2023-08-31T14:14:53;3.65;;;2.17;;
77864;SDS011;67061;48.524;9.040;2023-08-31T14:17:20;3.00;;;1.85;;
77864;SDS011;67061;48.524;9.040;2023-08-31T14:19:47;4.28;;;2.22;;
77864;SDS011;67061;48.524;9.040;2023-08-31T14:22:14;5.18;;;1.98;;
77864;SDS011;67061;48.524;9.040;2023-08-31T14:24:43;3.35;;;1.92;;
77864;SDS011;67061;48.524;9.040;2023-08-31T14:27:10;2.90;;;0.85;;
77864;SDS011;67061;48.524;9.040;2023-08-31T14:29:37;3.92;;;2.03;;
77864;SDS011;67061;48.524;9.040;2023-08-31T14:32:04;4.72;;;2.13;;
77864;SDS011;67061;48.524;9.040;2023-08-31T14:34:31;3.42;;;1.75;;
77864;SDS011;67061;48.524;9.040;2023-08-31T14:36:58;3.90;;;2.10;;
77864;SDS011;67061;48.524;9.040;2023-08-31T14:39:26;5.28;;;2.17;;
77864;SDS011;67061;48.524;9.040;2023-08-31T14:44:23;3.22;;;2.20;;
77864;SDS011;67061;48.524;9.040;2023-08-31T14:46:50;3.80;;;2.15;;
77864;SDS011;67061;48.524;9.040;2023-08-31T14:49:17;4.72;;;2.13;;
77864;SDS011;67061;48.524;9.040;2023-08-31T14:51:44;5.18;;;1.88;;
77864;SDS011;67061;48.524;9.040;2023-08-31T14:54:11;6.00;;;2.42;;
77864;SDS011;67061;48.524;9.040;2023-08-31T14:56:38;4.97;;;2.40;;
77864;SDS011;67061;48.524;9.040;2023-08-31T14:59:06;4.22;;;2.05;;
77864;SDS011;67061;48.524;9.040;2023-08-31T15:01:33;5.68;;;2.33;;
77864;SDS011;67061;48.524;9.040;2023-08-31T15:04:00;4.20;;;1.98;;
77864;SDS011;67061;48.524;9.040;2023-08-31T15:08:57;3.20;;;2.10;;
77864;SDS011;67061;48.524;9.040;2023-08-31T15:11:25;3.72;;;2.00;;